createdAt,value
2017-08-26T00:01:12.466Z,21.17
2017-08-26T00:03:40.078Z,21.22
2017-08-26T00:06:07.687Z,21.21
2017-08-26T00:08:35.314Z,21.21
2017-08-26T00:11:02.899Z,21.19
2017-08-26T00:13:30.590Z,21.14
2017-08-26T00:15:58.222Z,21.08
2017-08-26T00:18:25.858Z,21.06
2017-08-26T00:20:53.443Z,21.02
2017-08-26T00:23:21.410Z,21.01
2017-08-26T00:25:49.006Z,21.03
2017-08-26T00:28:16.593Z,21.06
2017-08-26T00:30:44.242Z,21.06
2017-08-26T00:33:11.852Z,21.08
2017-08-26T00:35:39.500Z,21.06
2017-08-26T00:38:07.143Z,21.02
2017-08-26T00:40:34.807Z,21.03
2017-08-26T00:43:08.230Z,21.05
2017-08-26T00:45:35.999Z,21.05
2017-08-26T00:48:03.595Z,21.06
2017-08-26T00:50:31.212Z,21.01
2017-08-26T00:52:58.846Z,21.01
2017-08-26T00:55:26.447Z,20.98
2017-08-26T00:57:54.087Z,21.03
2017-08-26T01:00:21.672Z,20.97
2017-08-26T01:02:49.318Z,21.00
2017-08-26T01:05:16.914Z,21.06
2017-08-26T01:07:44.717Z,21.03
2017-08-26T01:10:12.318Z,21.06
2017-08-26T01:12:40.179Z,21.08
2017-08-26T01:15:07.759Z,21.07
2017-08-26T01:17:35.427Z,21.06
2017-08-26T01:20:03.098Z,21.07
2017-08-26T01:22:30.703Z,21.08
2017-08-26T01:24:58.388Z,21.00
2017-08-26T01:27:26.014Z,20.93
2017-08-26T01:29:53.662Z,20.91
2017-08-26T01:32:21.307Z,20.86
2017-08-26T01:34:48.958Z,20.81
2017-08-26T01:37:16.549Z,20.80
2017-08-26T01:39:44.280Z,20.86
2017-08-26T01:42:11.907Z,20.91
2017-08-26T01:44:39.507Z,21.00
2017-08-26T01:47:07.140Z,21.10
2017-08-26T01:49:34.728Z,21.12
2017-08-26T01:52:02.375Z,21.18
2017-08-26T01:54:30.162Z,21.20
2017-08-26T01:56:57.970Z,21.12
2017-08-26T01:59:25.576Z,21.08
2017-08-26T02:01:53.162Z,21.04
2017-08-26T02:04:20.903Z,21.07
2017-08-26T02:06:48.543Z,21.15
2017-08-26T02:09:16.173Z,21.20
2017-08-26T02:11:43.765Z,21.16
2017-08-26T02:14:11.394Z,21.06
2017-08-26T02:16:39.025Z,21.03
2017-08-26T02:19:06.778Z,20.96
2017-08-26T02:21:34.383Z,20.90
2017-08-26T02:24:02.134Z,20.87
2017-08-26T02:26:29.739Z,20.85
2017-08-26T02:28:57.400Z,20.84
2017-08-26T02:31:25.058Z,20.71
2017-08-26T02:33:52.644Z,20.67
2017-08-26T02:36:20.292Z,20.68
2017-08-26T02:38:47.893Z,20.71
2017-08-26T02:41:15.545Z,20.70
2017-08-26T02:43:43.142Z,20.66
2017-08-26T02:46:10.828Z,20.68
2017-08-26T02:48:38.538Z,20.68
2017-08-26T02:51:06.481Z,20.69
2017-08-26T02:53:34.101Z,20.73
2017-08-26T02:56:01.700Z,20.79
2017-08-26T02:58:29.336Z,20.81
2017-08-26T03:00:56.936Z,20.81
2017-08-26T03:03:24.584Z,20.85
2017-08-26T03:05:52.191Z,20.84
2017-08-26T03:08:19.939Z,20.79
2017-08-26T03:10:47.535Z,20.68
2017-08-26T03:13:15.123Z,20.58
2017-08-26T03:15:42.755Z,20.57
2017-08-26T03:18:10.379Z,20.56
2017-08-26T03:20:38.029Z,20.53
2017-08-26T03:23:05.622Z,20.49
2017-08-26T03:25:33.380Z,20.46
2017-08-26T03:28:00.982Z,20.49
2017-08-26T03:30:28.695Z,20.55
2017-08-26T03:32:56.306Z,20.48
2017-08-26T03:35:24.347Z,20.37
2017-08-26T03:37:51.939Z,20.46
2017-08-26T03:40:19.547Z,20.53
2017-08-26T03:42:47.194Z,20.54
2017-08-26T03:45:14.798Z,20.59
2017-08-26T03:47:42.486Z,20.63
2017-08-26T03:50:10.097Z,20.61
2017-08-26T03:52:37.734Z,20.57
2017-08-26T03:55:05.330Z,20.52
2017-08-26T03:57:32.971Z,20.55
2017-08-26T04:00:00.619Z,20.50
2017-08-26T04:02:28.264Z,20.51
2017-08-26T04:04:55.934Z,20.54
2017-08-26T04:07:23.562Z,20.55
2017-08-26T04:09:51.166Z,20.57
2017-08-26T04:12:18.756Z,20.59
2017-08-26T04:14:46.527Z,20.58
2017-08-26T04:17:14.126Z,20.56
2017-08-26T04:19:41.796Z,20.56
2017-08-26T04:22:09.402Z,20.53
2017-08-26T04:24:37.046Z,20.57
2017-08-26T04:27:04.661Z,20.55
2017-08-26T04:29:32.314Z,20.54
2017-08-26T04:31:59.946Z,20.59
2017-08-26T04:34:27.673Z,20.61
2017-08-26T04:36:55.279Z,20.62
2017-08-26T04:39:22.914Z,20.69
2017-08-26T04:41:50.518Z,20.72
2017-08-26T04:44:18.160Z,20.72
2017-08-26T04:46:45.783Z,20.68
2017-08-26T04:49:13.530Z,20.64
2017-08-26T04:51:41.256Z,20.58
2017-08-26T04:54:08.883Z,20.55
2017-08-26T04:56:36.510Z,20.57
2017-08-26T04:59:04.115Z,20.55
2017-08-26T05:01:31.727Z,20.51
2017-08-26T05:03:59.311Z,20.55
2017-08-26T05:06:27.031Z,20.55
2017-08-26T05:08:54.666Z,20.52
2017-08-26T05:11:22.346Z,20.47
2017-08-26T05:13:49.926Z,20.50
2017-08-26T05:16:17.718Z,20.53
2017-08-26T05:18:45.422Z,20.52
2017-08-26T05:21:13.038Z,20.52
2017-08-26T05:23:40.854Z,20.49
2017-08-26T05:26:08.451Z,20.47
2017-08-26T05:28:36.045Z,20.46
2017-08-26T05:31:03.798Z,20.41
2017-08-26T05:33:31.435Z,20.33
2017-08-26T05:35:59.071Z,20.30
2017-08-26T05:38:26.710Z,20.22
2017-08-26T05:40:54.307Z,20.28
2017-08-26T05:43:21.932Z,20.28
2017-08-26T05:45:49.542Z,20.28
2017-08-26T05:48:17.492Z,20.31
2017-08-26T05:50:45.082Z,20.30
2017-08-26T05:53:12.671Z,20.19
2017-08-26T05:55:40.374Z,20.25
2017-08-26T05:58:07.974Z,20.33
2017-08-26T06:00:35.607Z,20.38
2017-08-26T06:03:03.362Z,20.43
2017-08-26T06:05:30.993Z,20.53
2017-08-26T06:07:58.589Z,20.59
2017-08-26T06:10:26.223Z,20.62
2017-08-26T06:12:53.839Z,20.67
2017-08-26T06:15:21.576Z,20.69
2017-08-26T06:17:49.167Z,20.65
2017-08-26T06:20:16.759Z,20.65
2017-08-26T06:22:44.426Z,20.65
2017-08-26T06:25:12.027Z,20.65
2017-08-26T06:27:39.665Z,20.63
2017-08-26T06:30:07.258Z,20.63
2017-08-26T06:32:34.886Z,20.64
2017-08-26T06:35:02.483Z,20.63
2017-08-26T06:37:30.114Z,20.68
2017-08-26T06:39:57.735Z,20.78
2017-08-26T06:42:25.851Z,20.81
2017-08-26T06:44:53.467Z,20.82
2017-08-26T06:47:21.071Z,20.85
2017-08-26T06:49:48.706Z,20.89
2017-08-26T06:52:16.366Z,20.95
2017-08-26T06:54:43.990Z,21.03
2017-08-26T06:57:11.576Z,21.12
2017-08-26T06:59:39.230Z,21.14
2017-08-26T07:02:06.821Z,21.15
2017-08-26T07:04:34.541Z,21.21
2017-08-26T07:07:02.139Z,21.27
2017-08-26T07:09:29.930Z,21.29
2017-08-26T07:11:57.538Z,21.26
2017-08-26T07:14:25.371Z,21.24
2017-08-26T07:16:53.286Z,21.30
2017-08-26T07:19:20.922Z,21.32
2017-08-26T07:21:48.662Z,21.37
2017-08-26T07:24:16.315Z,21.42
2017-08-26T07:26:43.946Z,21.47
2017-08-26T07:29:11.591Z,21.49
2017-08-26T07:31:39.195Z,21.54
2017-08-26T07:34:07.242Z,21.57
2017-08-26T07:36:34.878Z,21.53
2017-08-26T07:39:02.507Z,21.59
2017-08-26T07:41:30.254Z,21.52
2017-08-26T07:43:58.000Z,21.59
2017-08-26T07:46:25.626Z,21.67
2017-08-26T07:48:53.288Z,21.71
2017-08-26T07:51:20.883Z,21.72
2017-08-26T07:53:48.491Z,21.78
2017-08-26T07:56:16.110Z,21.80
2017-08-26T07:58:43.727Z,21.84
2017-08-26T08:01:11.369Z,21.88
2017-08-26T08:03:38.999Z,21.89
2017-08-26T08:06:06.628Z,21.91
2017-08-26T08:08:34.248Z,21.89
2017-08-26T08:11:01.866Z,21.90
2017-08-26T08:13:29.465Z,21.94
2017-08-26T08:15:57.090Z,21.94
2017-08-26T08:18:24.701Z,21.96
2017-08-26T08:20:52.339Z,22.05
2017-08-26T08:23:19.942Z,22.08
2017-08-26T08:25:47.599Z,22.11
2017-08-26T08:28:15.230Z,22.22
2017-08-26T08:30:42.839Z,22.34
2017-08-26T08:33:10.466Z,22.47
2017-08-26T08:35:38.074Z,22.61
2017-08-26T08:38:05.711Z,22.62
2017-08-26T08:40:33.338Z,22.71
2017-08-26T08:43:00.971Z,22.88
2017-08-26T08:45:28.580Z,22.91
2017-08-26T08:47:56.216Z,22.79
2017-08-26T08:50:23.968Z,22.73
2017-08-26T08:52:51.594Z,22.67
2017-08-26T08:55:19.217Z,22.61
2017-08-26T08:57:46.871Z,22.61
2017-08-26T09:00:14.471Z,22.68
2017-08-26T09:02:42.134Z,22.77
2017-08-26T09:05:09.833Z,22.89
2017-08-26T09:07:37.470Z,22.95
2017-08-26T09:10:05.219Z,23.03
2017-08-26T09:12:32.896Z,23.09
2017-08-26T09:15:00.524Z,23.15
2017-08-26T09:17:28.158Z,23.23
2017-08-26T09:19:55.761Z,23.21
2017-08-26T09:22:23.429Z,23.22
2017-08-26T09:24:51.031Z,23.21
2017-08-26T09:27:18.694Z,23.32
2017-08-26T09:29:46.427Z,23.31
2017-08-26T09:32:14.026Z,23.32
2017-08-26T09:34:41.874Z,23.41
2017-08-26T09:37:09.458Z,23.52
2017-08-26T09:39:37.093Z,23.65
2017-08-26T09:42:04.699Z,23.73
2017-08-26T09:44:32.350Z,23.82
2017-08-26T09:46:59.954Z,23.88
2017-08-26T09:49:27.606Z,23.95
2017-08-26T09:51:55.203Z,24.00
2017-08-26T09:54:23.319Z,24.03
2017-08-26T09:56:50.914Z,24.01
2017-08-26T09:59:18.539Z,24.06
2017-08-26T10:01:46.145Z,24.05
2017-08-26T10:04:13.783Z,24.19
2017-08-26T10:06:41.367Z,24.46
2017-08-26T10:09:09.201Z,24.49
2017-08-26T10:11:36.799Z,24.41
2017-08-26T10:14:04.427Z,24.34
2017-08-26T10:16:32.113Z,24.26
2017-08-26T10:18:59.754Z,24.32
2017-08-26T10:21:27.361Z,24.29
2017-08-26T10:23:55.023Z,24.30
2017-08-26T10:26:22.638Z,24.28
2017-08-26T10:28:50.279Z,24.29
2017-08-26T10:31:17.946Z,24.26
2017-08-26T10:33:45.539Z,24.29
2017-08-26T10:36:13.149Z,24.34
2017-08-26T10:38:42.531Z,24.39
2017-08-26T10:41:10.127Z,24.43
2017-08-26T10:43:37.754Z,24.47
2017-08-26T10:46:05.355Z,24.56
2017-08-26T10:48:33.124Z,24.68
2017-08-26T10:51:00.735Z,24.77
2017-08-26T10:53:28.354Z,24.88
2017-08-26T10:55:56.090Z,25.18
2017-08-26T10:58:23.748Z,25.38
2017-08-26T11:00:51.350Z,25.42
2017-08-26T11:03:18.963Z,25.63
2017-08-26T11:05:46.598Z,25.79
2017-08-26T11:08:14.230Z,25.77
2017-08-26T11:10:41.871Z,25.85
2017-08-26T11:13:09.474Z,25.81
2017-08-26T11:15:37.111Z,25.96
2017-08-26T11:18:04.712Z,25.74
2017-08-26T11:20:32.344Z,25.54
2017-08-26T11:22:59.971Z,25.56
2017-08-26T11:25:27.618Z,25.57
2017-08-26T11:27:55.211Z,25.56
2017-08-26T11:30:22.860Z,25.58
2017-08-26T11:32:50.459Z,25.69
2017-08-26T11:35:18.153Z,25.99
2017-08-26T11:37:45.753Z,26.11
2017-08-26T11:40:13.386Z,26.45
2017-08-26T11:42:40.996Z,26.88
2017-08-26T11:45:08.670Z,26.87
2017-08-26T11:47:36.269Z,27.11
2017-08-26T11:50:03.938Z,27.29
2017-08-26T11:52:31.576Z,27.10
2017-08-26T11:54:59.355Z,26.97
2017-08-26T11:57:26.970Z,27.07
2017-08-26T11:59:54.594Z,27.07
2017-08-26T12:02:22.196Z,27.09
2017-08-26T12:04:49.852Z,27.18
2017-08-26T12:07:17.464Z,27.28
2017-08-26T12:09:45.215Z,27.51
2017-08-26T12:12:12.902Z,27.53
2017-08-26T12:14:40.562Z,27.67
2017-08-26T12:17:08.217Z,27.64
2017-08-26T12:19:35.818Z,27.80
2017-08-26T12:22:03.465Z,27.88
2017-08-26T12:24:31.090Z,27.97
2017-08-26T12:26:58.767Z,27.92
2017-08-26T12:29:26.366Z,27.98
2017-08-26T12:31:54.010Z,28.16
2017-08-26T12:34:21.638Z,28.27
2017-08-26T12:36:49.287Z,28.24
2017-08-26T12:39:16.906Z,28.09
2017-08-26T12:41:44.552Z,28.11
2017-08-26T12:44:12.153Z,27.85
2017-08-26T12:46:39.900Z,27.85
2017-08-26T12:49:07.510Z,28.02
2017-08-26T12:51:35.142Z,27.95
2017-08-26T12:54:02.766Z,28.03
2017-08-26T12:56:30.401Z,28.00
2017-08-26T12:58:58.030Z,27.88
2017-08-26T13:01:25.654Z,27.92
2017-08-26T13:03:53.275Z,27.94
2017-08-26T13:06:20.907Z,27.93
2017-08-26T13:08:48.516Z,28.00
2017-08-26T13:11:16.167Z,28.07
2017-08-26T13:13:43.758Z,27.98
2017-08-26T13:16:11.393Z,27.99
2017-08-26T13:18:38.987Z,28.06
2017-08-26T13:21:06.645Z,28.06
2017-08-26T13:23:34.238Z,27.99
2017-08-26T13:26:01.903Z,27.99
2017-08-26T13:28:29.500Z,28.15
2017-08-26T13:30:57.198Z,28.30
2017-08-26T13:33:24.807Z,28.49
2017-08-26T13:35:52.485Z,28.71
2017-08-26T13:38:20.099Z,28.92
2017-08-26T13:40:47.738Z,29.08
2017-08-26T13:43:15.345Z,28.87
2017-08-26T13:45:43.238Z,28.67
2017-08-26T13:48:10.888Z,28.19
2017-08-26T13:50:38.484Z,27.88
2017-08-26T13:53:06.126Z,27.84
2017-08-26T13:55:33.726Z,28.16
2017-08-26T13:58:01.359Z,28.17
2017-08-26T14:00:28.953Z,28.04
2017-08-26T14:02:56.592Z,27.93
2017-08-26T14:05:24.191Z,28.12
2017-08-26T14:07:51.867Z,27.95
2017-08-26T14:10:19.491Z,27.97
2017-08-26T14:12:47.162Z,27.94
2017-08-26T14:15:14.776Z,27.95
2017-08-26T14:17:42.583Z,28.03
2017-08-26T14:20:10.182Z,28.07
2017-08-26T14:22:37.823Z,27.96
2017-08-26T14:25:05.434Z,28.02
2017-08-26T14:27:33.056Z,28.08
2017-08-26T14:30:00.664Z,28.03
2017-08-26T14:32:28.311Z,27.93
2017-08-26T14:34:55.930Z,27.93
2017-08-26T14:37:23.626Z,27.88
2017-08-26T14:39:51.237Z,27.91
2017-08-26T14:42:19.099Z,27.85
2017-08-26T14:44:46.686Z,28.14
2017-08-26T14:47:14.310Z,28.50
2017-08-26T14:49:41.922Z,28.67
2017-08-26T14:52:09.556Z,28.78
2017-08-26T14:54:37.168Z,28.68
2017-08-26T14:57:04.822Z,28.49
2017-08-26T14:59:32.450Z,28.54
2017-08-26T15:02:00.088Z,28.48
2017-08-26T15:04:27.698Z,28.62
2017-08-26T15:06:55.344Z,28.60
2017-08-26T15:09:23.005Z,28.53
2017-08-26T15:11:50.618Z,28.61
2017-08-26T15:14:18.243Z,28.63
2017-08-26T15:16:45.863Z,28.57
2017-08-26T15:19:13.486Z,28.16
2017-08-26T15:21:41.087Z,27.97
2017-08-26T15:24:08.746Z,27.85
2017-08-26T15:26:36.342Z,27.86
2017-08-26T15:29:03.983Z,27.94
2017-08-26T15:31:31.641Z,28.10
2017-08-26T15:33:59.264Z,28.13
2017-08-26T15:36:27.040Z,28.03
2017-08-26T15:38:54.666Z,28.03
2017-08-26T15:41:22.274Z,27.97
2017-08-26T15:43:49.907Z,27.91
2017-08-26T15:46:17.491Z,27.78
2017-08-26T15:48:45.194Z,27.68
2017-08-26T15:51:12.818Z,27.54
2017-08-26T15:53:40.450Z,27.56
2017-08-26T15:56:08.043Z,27.44
2017-08-26T15:58:35.637Z,27.32
2017-08-26T16:01:03.271Z,27.33
2017-08-26T16:03:30.857Z,27.25
2017-08-26T16:05:58.475Z,27.12
2017-08-26T16:08:26.083Z,27.12
2017-08-26T16:10:53.713Z,27.25
2017-08-26T16:13:21.304Z,27.40
2017-08-26T16:15:48.927Z,27.71
2017-08-26T16:18:16.531Z,27.78
2017-08-26T16:20:44.186Z,27.88
2017-08-26T16:23:11.838Z,27.78
2017-08-26T16:25:39.597Z,27.57
2017-08-26T16:28:07.199Z,27.41
2017-08-26T16:30:34.911Z,27.47
2017-08-26T16:33:02.511Z,27.52
2017-08-26T16:35:30.164Z,27.49
2017-08-26T16:37:57.770Z,27.46
2017-08-26T16:40:25.402Z,27.50
2017-08-26T16:42:52.999Z,27.54
2017-08-26T16:45:20.614Z,27.60
2017-08-26T16:47:48.359Z,27.51
2017-08-26T16:50:16.035Z,27.39
2017-08-26T16:52:43.638Z,27.31
2017-08-26T16:55:11.262Z,27.32
2017-08-26T16:57:39.018Z,27.28
2017-08-26T17:00:06.682Z,27.29
2017-08-26T17:02:34.318Z,27.29
2017-08-26T17:05:01.933Z,27.21
2017-08-26T17:07:29.560Z,27.27
2017-08-26T17:09:57.163Z,27.27
2017-08-26T17:12:24.806Z,27.22
2017-08-26T17:14:52.460Z,27.29
2017-08-26T17:17:20.049Z,27.36
2017-08-26T17:19:47.680Z,27.34
2017-08-26T17:22:15.278Z,27.29
2017-08-26T17:24:42.914Z,27.24
2017-08-26T17:27:10.578Z,27.22
2017-08-26T17:29:38.198Z,27.25
2017-08-26T17:32:05.799Z,27.27
2017-08-26T17:34:33.506Z,27.28
2017-08-26T17:37:01.105Z,27.14
2017-08-26T17:39:28.743Z,27.01
2017-08-26T17:41:56.514Z,26.87
2017-08-26T17:44:24.175Z,26.74
2017-08-26T17:46:51.770Z,26.61
2017-08-26T17:49:19.414Z,26.44
2017-08-26T17:51:47.010Z,26.35
2017-08-26T17:54:14.630Z,26.33
2017-08-26T17:56:42.240Z,26.27
2017-08-26T17:59:09.870Z,26.29
2017-08-26T18:01:37.472Z,26.23
2017-08-26T18:04:05.119Z,26.08
2017-08-26T18:06:32.715Z,26.08
2017-08-26T18:09:00.319Z,26.01
2017-08-26T18:11:27.966Z,26.00
2017-08-26T18:13:55.623Z,25.86
2017-08-26T18:16:23.342Z,25.80
2017-08-26T18:18:50.961Z,25.82
2017-08-26T18:21:18.596Z,25.80
2017-08-26T18:23:46.192Z,25.76
2017-08-26T18:26:13.847Z,25.63
2017-08-26T18:28:41.475Z,25.60
2017-08-26T18:31:09.087Z,25.59
2017-08-26T18:33:36.714Z,25.49
2017-08-26T18:36:04.376Z,25.50
2017-08-26T18:38:31.978Z,25.58
2017-08-26T18:40:59.623Z,25.98
2017-08-26T18:43:27.259Z,27.04
2017-08-26T21:40:05.544Z,23.70
2017-08-26T21:42:33.142Z,23.75
2017-08-26T21:45:00.930Z,23.71
2017-08-26T21:47:29.256Z,23.70
2017-08-26T21:49:57.118Z,23.64
2017-08-26T21:52:25.083Z,23.60
2017-08-26T21:54:52.951Z,23.60
2017-08-26T21:57:20.921Z,23.61
2017-08-26T21:59:49.095Z,23.64
2017-08-26T22:02:17.167Z,23.59
2017-08-26T22:04:45.133Z,23.54
2017-08-26T22:07:12.859Z,23.54
2017-08-26T22:09:40.482Z,23.57
2017-08-26T22:12:08.132Z,23.59
2017-08-26T22:14:35.755Z,23.63
2017-08-26T22:17:03.399Z,23.68
2017-08-26T22:19:31.020Z,23.70
2017-08-26T22:21:58.668Z,23.70
2017-08-26T22:24:26.267Z,23.70
2017-08-26T22:26:53.886Z,23.71
2017-08-26T22:29:21.480Z,23.64
2017-08-26T22:31:49.125Z,23.57
2017-08-26T22:34:16.731Z,23.54
2017-08-26T22:36:44.408Z,23.57
2017-08-26T22:39:12.003Z,23.56
2017-08-26T22:41:39.659Z,23.56
2017-08-26T22:44:07.271Z,23.47
2017-08-26T22:46:34.901Z,23.18
2017-08-26T22:49:02.554Z,22.92
2017-08-26T22:51:30.205Z,22.67
2017-08-26T22:53:57.961Z,22.65
2017-08-26T22:56:25.565Z,22.66
2017-08-26T22:58:53.362Z,22.69
2017-08-26T23:01:20.989Z,22.69
2017-08-26T23:03:48.631Z,22.65
2017-08-26T23:06:16.259Z,22.62
2017-08-26T23:08:43.878Z,22.59
2017-08-26T23:11:11.514Z,22.49
2017-08-26T23:13:39.118Z,22.43
2017-08-26T23:16:06.743Z,22.45
2017-08-26T23:18:34.343Z,22.36
2017-08-26T23:21:02.006Z,22.26
2017-08-26T23:23:29.649Z,22.19
2017-08-26T23:25:57.310Z,22.17
2017-08-26T23:28:24.921Z,22.13
2017-08-26T23:30:52.538Z,22.16
2017-08-26T23:33:20.278Z,22.15
2017-08-26T23:35:47.908Z,22.13
2017-08-26T23:38:15.528Z,22.14
2017-08-26T23:40:43.158Z,22.07
2017-08-26T23:43:10.761Z,22.00
2017-08-26T23:45:38.406Z,21.99
2017-08-26T23:48:06.027Z,22.03
2017-08-26T23:50:33.730Z,21.95
2017-08-26T23:53:01.507Z,21.91
2017-08-26T23:55:29.138Z,21.88
2017-08-26T23:57:56.751Z,21.86
